Time;durP1;ratioP1;P1;durP2;ratioP2;P2;SDS_P1;SDS_P2;PMS_P1;PMS_P2;Temp;Humidity;BMP_temperature;BMP_pressure;BME280_temperature;BME280_humidity;BME280_pressure;Samples;Min_cycle;Max_cycle;Signal;HPM_P1;HPM_P2
2022/03/06 00:01:11;;;;;;;48.23;24.80;;;1.50;99.90;;;;;;5087582;27;20101;-72
2022/03/06 00:03:38;;;;;;;38.90;20.20;;;1.50;99.90;;;;;;5060372;28;20375;-74
2022/03/06 00:06:05;;;;;;;32.90;18.17;;;1.50;99.90;;;;;;5060377;27;20433;-72
2022/03/06 00:08:32;;;;;;;36.23;18.90;;;1.50;99.90;;;;;;5079095;27;20512;-73
2022/03/06 00:10:58;;;;;;;30.97;16.73;;;1.40;99.90;;;;;;5102188;27;20635;-73
2022/03/06 00:13:24;;;;;;;37.10;19.50;;;1.40;99.90;;;;;;5098843;27;20012;-73
2022/03/06 00:15:51;;;;;;;36.43;18.13;;;1.40;99.90;;;;;;5097990;27;20034;-73
2022/03/06 00:18:17;;;;;;;30.00;16.53;;;1.40;99.90;;;;;;5080697;28;20036;-73
2022/03/06 00:20:44;;;;;;;30.90;17.57;;;1.30;99.90;;;;;;5100249;27;20023;-73
2022/03/06 00:23:10;;;;;;;36.80;18.50;;;1.30;99.90;;;;;;5098312;27;20027;-73
2022/03/06 00:25:37;;;;;;;34.13;19.40;;;1.30;99.90;;;;;;5079353;28;20466;-73
2022/03/06 00:28:04;;;;;;;33.20;18.43;;;1.30;99.90;;;;;;5093795;27;20040;-75
2022/03/06 00:30:30;;;;;;;33.40;17.80;;;1.30;99.90;;;;;;5093851;27;20036;-75
2022/03/06 00:32:57;;;;;;;40.33;20.10;;;1.30;99.90;;;;;;5076904;27;20027;-78
2022/03/06 00:35:24;;;;;;;47.37;21.63;;;1.20;99.90;;;;;;5061861;27;20371;-76
2022/03/06 00:37:50;;;;;;;38.60;20.57;;;1.20;99.90;;;;;;5078529;28;20494;-75
2022/03/06 00:40:17;;;;;;;35.87;19.83;;;1.20;99.90;;;;;;5094801;27;20399;-73
2022/03/06 00:42:44;;;;;;;35.03;18.07;;;1.20;99.90;;;;;;5096131;27;20050;-74
2022/03/06 00:45:10;;;;;;;33.60;18.47;;;1.10;99.90;;;;;;5093366;27;20058;-73
2022/03/06 00:47:36;;;;;;;33.70;18.57;;;1.10;99.90;;;;;;5073941;28;20036;-74
2022/03/06 00:50:03;;;;;;;31.40;17.50;;;1.10;99.90;;;;;;5044782;27;20044;-72
2022/03/06 00:52:30;;;;;;;32.23;17.57;;;1.10;99.90;;;;;;5060709;27;20272;-73
2022/03/06 00:54:56;;;;;;;35.97;18.83;;;1.10;99.90;;;;;;5080500;27;20023;-74
2022/03/06 00:57:23;;;;;;;34.97;18.43;;;1.00;99.90;;;;;;5077094;27;20029;-74
2022/03/06 00:59:49;;;;;;;32.67;17.93;;;1.00;99.90;;;;;;5093969;27;20028;-74
2022/03/06 01:02:16;;;;;;;32.73;18.07;;;1.00;99.90;;;;;;5062042;27;20038;-74
2022/03/06 01:04:43;;;;;;;31.43;17.67;;;1.00;99.90;;;;;;5059658;27;20494;-74
2022/03/06 01:07:10;;;;;;;31.60;17.20;;;1.00;99.90;;;;;;5077281;27;20514;-73
2022/03/06 01:09:36;;;;;;;31.93;17.70;;;1.00;99.90;;;;;;5060765;28;20040;-73
2022/03/06 01:12:03;;;;;;;35.20;18.53;;;1.00;99.90;;;;;;5076894;27;20036;-72
2022/03/06 01:14:29;;;;;;;31.63;18.20;;;1.00;99.90;;;;;;5079722;28;20023;-73
2022/03/06 01:16:56;;;;;;;33.87;18.10;;;1.00;99.90;;;;;;5081462;27;20023;-75
2022/03/06 01:19:22;;;;;;;32.63;17.10;;;0.90;99.90;;;;;;5073882;27;20036;-75
2022/03/06 01:21:49;;;;;;;34.53;18.73;;;0.90;99.90;;;;;;5061350;28;20032;-73
2022/03/06 01:24:16;;;;;;;28.43;16.67;;;0.90;99.90;;;;;;5063153;27;20019;-74
2022/03/06 01:26:42;;;;;;;28.20;16.17;;;0.90;99.90;;;;;;5062760;27;20366;-73
2022/03/06 01:29:09;;;;;;;33.77;17.93;;;0.80;99.90;;;;;;5072284;28;20458;-73
2022/03/06 01:31:36;;;;;;;38.20;18.80;;;0.80;99.90;;;;;;5076714;28;20225;-75
2022/03/06 01:34:03;;;;;;;27.57;15.20;;;0.80;99.90;;;;;;5041188;28;20059;-74
2022/03/06 01:36:31;;;;;;;33.37;18.67;;;0.80;99.90;;;;;;5094499;27;20023;-73
2022/03/06 01:38:58;;;;;;;29.63;17.07;;;0.70;99.90;;;;;;5074272;28;20598;-73
2022/03/06 01:41:24;;;;;;;30.30;16.30;;;0.70;99.90;;;;;;5076757;28;20419;-74
2022/03/06 01:43:51;;;;;;;28.63;16.77;;;0.70;99.90;;;;;;5074958;28;20024;-74
2022/03/06 01:46:17;;;;;;;29.43;17.30;;;0.60;99.90;;;;;;5093277;28;20860;-74
2022/03/06 01:48:44;;;;;;;29.57;16.70;;;0.60;99.90;;;;;;5055323;28;20034;-77
2022/03/06 01:51:10;;;;;;;28.90;16.50;;;0.60;99.90;;;;;;5080202;28;20035;-76
2022/03/06 01:53:37;;;;;;;31.10;16.20;;;0.60;99.90;;;;;;5095249;28;20327;-76
2022/03/06 01:56:03;;;;;;;23.33;13.80;;;0.60;99.90;;;;;;5098603;28;20013;-74
2022/03/06 01:58:30;;;;;;;30.97;18.17;;;0.60;99.90;;;;;;5093191;28;20026;-76
2022/03/06 02:00:56;;;;;;;23.23;13.83;;;0.60;99.90;;;;;;5058186;28;20016;-77
2022/03/06 02:03:23;;;;;;;24.50;15.40;;;0.60;99.90;;;;;;5078355;28;20038;-76
2022/03/06 02:05:49;;;;;;;25.13;15.00;;;0.50;99.90;;;;;;5098467;28;20027;-76
2022/03/06 02:08:16;;;;;;;28.23;16.07;;;0.50;99.90;;;;;;5096731;28;20032;-77
2022/03/06 02:10:43;;;;;;;31.70;16.27;;;0.50;99.90;;;;;;5097756;28;20024;-77
2022/03/06 02:13:09;;;;;;;28.20;15.73;;;0.50;99.90;;;;;;5097664;28;20463;-76
2022/03/06 02:15:36;;;;;;;26.03;14.73;;;0.50;99.90;;;;;;5060823;28;20027;-77
2022/03/06 02:18:03;;;;;;;26.40;16.23;;;0.40;99.90;;;;;;5058972;28;20034;-73
2022/03/06 02:20:29;;;;;;;25.97;13.83;;;0.40;99.90;;;;;;5094524;28;20024;-72
2022/03/06 02:22:57;;;;;;;32.97;17.37;;;0.40;99.90;;;;;;5066294;28;20032;-73
2022/03/06 02:25:32;;;;;;;26.40;15.37;;;0.40;99.90;;;;;;5099921;27;20016;-73
2022/03/06 02:28:01;;;;;;;24.70;14.97;;;0.40;99.90;;;;;;5095371;27;20036;-73
2022/03/06 02:30:30;;;;;;;30.43;17.63;;;0.40;99.90;;;;;;5099848;27;20043;-73
2022/03/06 02:32:59;;;;;;;25.33;15.70;;;0.30;99.90;;;;;;5104275;27;20030;-73
2022/03/06 02:35:26;;;;;;;24.03;14.90;;;0.30;99.90;;;;;;5102932;27;20503;-73
2022/03/06 02:37:53;;;;;;;24.37;14.50;;;0.30;99.90;;;;;;5079111;27;20032;-73
2022/03/06 02:40:21;;;;;;;24.53;15.60;;;0.30;99.90;;;;;;5081033;27;20030;-73
2022/03/06 02:42:48;;;;;;;28.67;18.23;;;0.30;99.90;;;;;;5082305;27;20038;-73
2022/03/06 02:45:19;;;;;;;29.10;16.20;;;0.30;99.90;;;;;;5085035;28;20034;-73
2022/03/06 02:47:47;;;;;;;30.80;17.43;;;0.20;99.90;;;;;;5063618;27;20020;-73
2022/03/06 02:50:18;;;;;;;28.77;16.80;;;0.30;99.90;;;;;;5085118;27;20043;-73
2022/03/06 02:52:44;;;;;;;28.40;17.23;;;0.20;99.90;;;;;;5085747;27;20026;-73
2022/03/06 02:55:12;;;;;;;28.97;16.33;;;0.20;99.90;;;;;;5084827;27;20020;-73
2022/03/06 02:57:39;;;;;;;23.93;14.23;;;0.20;99.90;;;;;;5081702;27;20363;-73
2022/03/06 03:00:10;;;;;;;24.60;15.37;;;0.10;99.90;;;;;;5099948;27;20043;-73
2022/03/06 03:02:38;;;;;;;30.10;17.63;;;0.10;99.90;;;;;;5069752;27;20375;-73
2022/03/06 03:05:06;;;;;;;30.17;17.23;;;0.10;99.90;;;;;;5104354;27;20031;-73
2022/03/06 03:07:32;;;;;;;25.83;15.50;;;0.10;99.90;;;;;;5101395;27;20462;-73
2022/03/06 03:09:58;;;;;;;30.03;17.97;;;0.00;99.90;;;;;;5101445;27;20379;-73
2022/03/06 03:12:26;;;;;;;30.40;15.37;;;0.00;99.90;;;;;;5080587;27;20032;-73
2022/03/06 03:14:53;;;;;;;27.33;16.03;;;0.00;99.90;;;;;;5083007;27;20032;-73
2022/03/06 03:17:19;;;;;;;26.67;14.90;;;0.00;99.90;;;;;;5099819;27;20027;-73
2022/03/06 03:19:46;;;;;;;26.70;16.57;;;0.00;99.90;;;;;;5061856;28;20026;-73
2022/03/06 03:22:12;;;;;;;27.97;16.10;;;0.00;99.90;;;;;;5101465;27;20036;-73
2022/03/06 03:24:39;;;;;;;25.17;14.90;;;-0.10;99.90;;;;;;5078458;27;20032;-73
2022/03/06 03:27:05;;;;;;;27.53;15.70;;;-0.10;99.90;;;;;;5079011;27;20024;-73
2022/03/06 03:29:31;;;;;;;26.80;15.67;;;-0.10;99.90;;;;;;5075301;27;20478;-73
2022/03/06 03:31:58;;;;;;;27.20;15.17;;;-0.10;99.90;;;;;;5095551;27;20484;-73
2022/03/06 03:34:24;;;;;;;27.73;15.47;;;-0.10;99.90;;;;;;5063891;28;20023;-73
2022/03/06 03:36:51;;;;;;;35.87;20.90;;;-0.20;99.90;;;;;;5103040;27;20370;-73
2022/03/06 03:39:17;;;;;;;31.83;17.77;;;-0.20;99.90;;;;;;5080347;27;20030;-73
2022/03/06 03:41:44;;;;;;;32.27;18.17;;;-0.20;99.90;;;;;;5100710;27;20019;-75
2022/03/06 03:44:10;;;;;;;26.50;15.80;;;-0.30;99.90;;;;;;5093509;27;20031;-73
2022/03/06 03:46:37;;;;;;;31.50;18.07;;;-0.30;99.90;;;;;;5092995;27;20399;-73
2022/03/06 03:49:03;;;;;;;23.10;14.43;;;-0.30;99.90;;;;;;5097297;27;20370;-74
2022/03/06 03:51:30;;;;;;;23.93;14.83;;;-0.30;99.90;;;;;;5061700;27;20071;-74
2022/03/06 03:53:57;;;;;;;26.77;15.23;;;-0.40;99.90;;;;;;5079087;27;20030;-73
2022/03/06 03:56:23;;;;;;;25.53;16.70;;;-0.40;99.90;;;;;;5077712;28;20016;-73
2022/03/06 03:58:50;;;;;;;24.30;13.70;;;-0.40;99.90;;;;;;5058871;28;20015;-73
2022/03/06 04:01:17;;;;;;;29.50;16.87;;;-0.40;99.90;;;;;;5075412;28;20047;-73
2022/03/06 04:03:44;;;;;;;26.23;15.67;;;-0.40;99.90;;;;;;5093284;27;20027;-73
2022/03/06 04:06:11;;;;;;;27.03;14.07;;;-0.40;99.90;;;;;;5093682;27;20024;-73
2022/03/06 04:08:37;;;;;;;23.93;14.93;;;-0.40;99.90;;;;;;5094357;27;20024;-73
2022/03/06 04:11:04;;;;;;;25.03;15.43;;;-0.40;99.90;;;;;;5080012;27;20036;-73
2022/03/06 04:13:31;;;;;;;31.73;17.50;;;-0.50;99.90;;;;;;5098886;27;20450;-75
2022/03/06 04:15:57;;;;;;;23.00;13.57;;;-0.50;99.90;;;;;;5099003;27;20016;-73
2022/03/06 04:18:24;;;;;;;24.03;15.47;;;-0.50;99.90;;;;;;5096311;27;20828;-73
2022/03/06 04:20:50;;;;;;;26.63;15.00;;;-0.50;99.90;;;;;;5098653;27;20016;-73
2022/03/06 04:23:17;;;;;;;24.60;13.90;;;-0.50;99.90;;;;;;5081942;27;20793;-73
2022/03/06 04:25:44;;;;;;;27.70;16.40;;;-0.50;99.90;;;;;;5083157;27;20032;-72
2022/03/06 04:28:10;;;;;;;24.77;14.47;;;-0.60;99.90;;;;;;5051706;27;20028;-73
2022/03/06 04:30:37;;;;;;;25.83;15.60;;;-0.60;99.90;;;;;;5102172;27;20036;-73
2022/03/06 04:33:04;;;;;;;23.17;13.93;;;-0.60;99.90;;;;;;5065722;27;20023;-73
2022/03/06 04:35:30;;;;;;;24.90;16.33;;;-0.60;99.90;;;;;;5081596;28;20012;-73
2022/03/06 04:37:57;;;;;;;25.97;15.73;;;-0.60;99.90;;;;;;5075389;27;20024;-74
2022/03/06 04:40:23;;;;;;;34.87;18.53;;;-0.60;99.90;;;;;;5097388;27;20035;-73
2022/03/06 04:42:50;;;;;;;28.03;15.80;;;-0.60;99.90;;;;;;5036167;27;20482;-73
2022/03/06 04:45:16;;;;;;;25.87;15.20;;;-0.60;99.90;;;;;;5080693;27;20035;-73
2022/03/06 04:47:43;;;;;;;27.13;16.10;;;-0.60;99.90;;;;;;5097360;27;20020;-73
2022/03/06 04:50:10;;;;;;;22.90;15.07;;;-0.60;99.90;;;;;;5066255;27;20356;-72
2022/03/06 04:52:36;;;;;;;23.57;14.17;;;-0.60;99.90;;;;;;5097114;27;20430;-76
2022/03/06 04:55:03;;;;;;;24.43;16.07;;;-0.60;99.90;;;;;;5096356;27;20016;-76
2022/03/06 04:57:29;;;;;;;28.77;16.67;;;-0.60;99.90;;;;;;5095402;27;20024;-76
2022/03/06 04:59:56;;;;;;;25.57;16.77;;;-0.60;99.90;;;;;;5077806;28;20023;-76
2022/03/06 05:02:22;;;;;;;26.20;17.67;;;-0.60;99.90;;;;;;5096260;27;20035;-76
2022/03/06 05:04:50;;;;;;;22.90;14.70;;;-0.70;99.90;;;;;;5095537;27;20028;-76
2022/03/06 05:07:16;;;;;;;25.37;16.20;;;-0.60;99.90;;;;;;5080813;28;20012;-76
2022/03/06 05:09:43;;;;;;;24.57;15.40;;;-0.60;99.90;;;;;;5080232;28;20035;-76
2022/03/06 05:12:09;;;;;;;25.10;16.47;;;-0.60;99.90;;;;;;5092246;27;20365;-76
2022/03/06 05:14:37;;;;;;;24.73;16.27;;;-0.70;99.90;;;;;;5095573;27;20031;-76
2022/03/06 05:17:04;;;;;;;26.73;16.17;;;-0.70;99.90;;;;;;5096426;27;20024;-76
2022/03/06 05:19:30;;;;;;;26.07;15.87;;;-0.70;99.90;;;;;;5095538;27;20031;-76
2022/03/06 05:21:56;;;;;;;27.47;16.23;;;-0.70;99.90;;;;;;5058610;28;20024;-76
2022/03/06 05:24:23;;;;;;;26.93;15.30;;;-0.70;99.90;;;;;;5060871;28;20344;-76
2022/03/06 05:26:49;;;;;;;31.10;17.77;;;-0.70;99.90;;;;;;5079182;28;20024;-76
2022/03/06 05:29:16;;;;;;;29.10;17.00;;;-0.70;99.90;;;;;;5076798;27;20031;-76
2022/03/06 05:31:42;;;;;;;27.13;15.63;;;-0.70;99.90;;;;;;5079734;27;20043;-76
2022/03/06 05:34:08;;;;;;;29.37;17.43;;;-0.70;99.90;;;;;;5096825;27;20101;-76
2022/03/06 05:36:35;;;;;;;25.13;14.83;;;-0.70;99.90;;;;;;5098391;27;20047;-76
2022/03/06 05:39:02;;;;;;;27.37;15.27;;;-0.70;99.90;;;;;;5078179;28;20034;-77
2022/03/06 05:41:28;;;;;;;23.93;16.00;;;-0.80;99.90;;;;;;5096871;27;20051;-76
2022/03/06 05:43:55;;;;;;;22.97;14.30;;;-0.70;99.90;;;;;;5077249;28;20036;-77
2022/03/06 05:46:21;;;;;;;27.10;14.80;;;-0.80;99.90;;;;;;5066305;28;20039;-77
2022/03/06 05:48:48;;;;;;;22.30;14.20;;;-0.80;99.90;;;;;;5079774;28;20240;-77
2022/03/06 05:51:15;;;;;;;23.47;14.83;;;-0.80;99.90;;;;;;5095426;27;20510;-76
2022/03/06 05:53:41;;;;;;;26.20;16.23;;;-0.80;99.90;;;;;;5095735;28;20039;-76
2022/03/06 05:56:08;;;;;;;25.33;15.07;;;-0.80;99.90;;;;;;5064847;28;20032;-76
2022/03/06 05:58:34;;;;;;;28.00;17.10;;;-0.80;99.90;;;;;;5080047;28;20023;-76
2022/03/06 06:01:01;;;;;;;31.20;18.93;;;-0.80;99.90;;;;;;5084179;28;20025;-76
2022/03/06 06:03:28;;;;;;;24.10;15.40;;;-0.80;99.90;;;;;;5081438;28;20035;-76
2022/03/06 06:05:54;;;;;;;25.23;15.20;;;-0.80;99.90;;;;;;5079407;28;20379;-76
2022/03/06 06:08:21;;;;;;;25.70;16.57;;;-0.80;99.90;;;;;;5063333;28;20038;-73
2022/03/06 06:10:47;;;;;;;24.70;15.80;;;-0.90;99.90;;;;;;5080246;28;20055;-73
2022/03/06 06:13:15;;;;;;;26.87;16.00;;;-0.90;99.90;;;;;;5078543;28;20027;-73
2022/03/06 06:15:45;;;;;;;31.00;18.70;;;-0.90;99.90;;;;;;5075994;28;20020;-76
2022/03/06 06:18:11;;;;;;;23.90;15.53;;;-0.90;99.90;;;;;;5062776;28;20031;-76
2022/03/06 06:20:40;;;;;;;25.90;16.87;;;-0.90;99.90;;;;;;5077317;28;20020;-76
2022/03/06 06:23:06;;;;;;;29.50;16.67;;;-0.80;99.90;;;;;;5076251;28;20034;-76
2022/03/06 06:25:32;;;;;;;30.37;16.97;;;-0.90;99.90;;;;;;5097236;28;20501;-76
2022/03/06 06:27:59;;;;;;;31.57;19.33;;;-0.90;99.90;;;;;;5079073;28;20046;-76
2022/03/06 06:30:25;;;;;;;26.20;18.40;;;-0.90;99.90;;;;;;5078062;28;20394;-77
2022/03/06 06:32:52;;;;;;;34.27;19.13;;;-0.90;99.90;;;;;;5080210;28;20510;-76
2022/03/06 06:35:20;;;;;;;32.60;18.40;;;-0.90;99.90;;;;;;5061396;28;20845;-76
2022/03/06 06:37:48;;;;;;;28.63;17.80;;;-0.90;99.90;;;;;;5076828;28;20015;-77
2022/03/06 06:40:15;;;;;;;28.27;18.33;;;-0.80;99.90;;;;;;5060456;28;20024;-76
2022/03/06 06:42:41;;;;;;;27.00;17.80;;;-0.80;99.90;;;;;;5079107;28;20023;-76
2022/03/06 06:45:08;;;;;;;31.90;20.33;;;-0.80;99.90;;;;;;5068360;28;20015;-76
2022/03/06 06:47:34;;;;;;;33.07;17.73;;;-0.80;99.90;;;;;;5076564;28;20023;-76
2022/03/06 06:50:01;;;;;;;29.37;18.53;;;-0.60;99.90;;;;;;5099009;28;20030;-77
2022/03/06 06:52:27;;;;;;;25.73;18.23;;;-0.60;99.90;;;;;;5079122;28;20042;-76
2022/03/06 06:54:54;;;;;;;29.70;18.67;;;-0.60;99.90;;;;;;5062787;28;20040;-77
2022/03/06 06:57:20;;;;;;;33.20;22.20;;;-0.50;99.90;;;;;;5094034;28;20023;-76
2022/03/06 06:59:46;;;;;;;27.93;17.27;;;-0.50;99.90;;;;;;5061954;28;20016;-77
2022/03/06 07:02:13;;;;;;;26.10;16.70;;;-0.40;99.90;;;;;;5094485;28;20030;-76
2022/03/06 07:04:39;;;;;;;29.03;18.40;;;-0.30;99.90;;;;;;5076805;28;20030;-77
2022/03/06 07:07:06;;;;;;;25.50;18.60;;;-0.30;99.90;;;;;;5091176;28;20028;-76
2022/03/06 07:09:32;;;;;;;25.90;17.03;;;-0.20;99.90;;;;;;5065125;28;20043;-76
2022/03/06 07:11:59;;;;;;;25.50;17.13;;;-0.20;99.90;;;;;;5085179;27;20050;-76
2022/03/06 07:14:25;;;;;;;26.30;17.23;;;-0.10;99.90;;;;;;5097390;27;20032;-76
2022/03/06 07:16:51;;;;;;;25.20;15.87;;;0.00;99.90;;;;;;5083455;27;20024;-76
2022/03/06 07:19:18;;;;;;;25.23;16.53;;;0.10;99.90;;;;;;5101127;27;20474;-76
2022/03/06 07:21:44;;;;;;;24.73;16.23;;;0.20;99.90;;;;;;5081634;27;20040;-76
2022/03/06 07:24:11;;;;;;;24.97;16.20;;;0.20;99.90;;;;;;5082289;28;20035;-76
2022/03/06 07:26:37;;;;;;;26.00;16.77;;;0.30;99.90;;;;;;5097479;27;20020;-76
2022/03/06 07:29:04;;;;;;;24.83;16.47;;;0.40;99.90;;;;;;5097832;27;20023;-76
2022/03/06 07:31:30;;;;;;;26.37;16.53;;;0.50;99.90;;;;;;5083770;27;20138;-76
2022/03/06 07:33:57;;;;;;;23.27;15.40;;;0.50;99.90;;;;;;5066539;27;20036;-77
2022/03/06 07:36:24;;;;;;;23.40;14.47;;;0.60;99.90;;;;;;5080259;27;20019;-76
2022/03/06 07:38:50;;;;;;;23.23;15.13;;;0.70;99.90;;;;;;5084850;27;20038;-77
2022/03/06 07:41:17;;;;;;;24.80;15.97;;;0.70;99.90;;;;;;5106438;27;20031;-76
2022/03/06 07:43:44;;;;;;;21.20;13.77;;;0.80;99.90;;;;;;5096328;27;20023;-76
2022/03/06 07:46:11;;;;;;;20.60;13.90;;;0.80;99.90;;;;;;5096231;27;20054;-76
2022/03/06 07:48:37;;;;;;;25.70;16.67;;;0.90;99.90;;;;;;5085117;27;20031;-76
2022/03/06 07:51:04;;;;;;;20.27;13.60;;;0.90;99.90;;;;;;5107459;27;20031;-76
2022/03/06 07:53:30;;;;;;;20.50;13.50;;;1.00;99.90;;;;;;5088022;27;20032;-76
2022/03/06 07:55:57;;;;;;;20.87;13.60;;;1.10;99.90;;;;;;5051233;27;20035;-76
2022/03/06 07:58:23;;;;;;;19.10;12.57;;;1.30;99.90;;;;;;5080975;27;20034;-76
2022/03/06 08:00:50;;;;;;;23.67;13.33;;;1.30;99.90;;;;;;5081762;28;20051;-76
2022/03/06 08:03:16;;;;;;;21.10;12.80;;;1.40;99.90;;;;;;5082224;27;20015;-76
2022/03/06 08:05:44;;;;;;;18.13;12.37;;;1.40;99.90;;;;;;5095566;27;20477;-76
2022/03/06 08:08:10;;;;;;;20.57;12.87;;;1.50;99.90;;;;;;5098728;27;20026;-76
2022/03/06 08:10:37;;;;;;;19.43;12.30;;;1.60;99.90;;;;;;5065632;27;20054;-76
2022/03/06 08:13:03;;;;;;;19.40;11.80;;;1.60;99.90;;;;;;5069203;28;20031;-76
2022/03/06 08:15:29;;;;;;;19.80;12.80;;;1.70;99.90;;;;;;5067400;27;20110;-75
2022/03/06 08:17:56;;;;;;;17.20;10.77;;;1.70;99.90;;;;;;5096452;27;20031;-75
2022/03/06 08:20:22;;;;;;;17.90;11.93;;;1.80;99.90;;;;;;5080546;28;20012;-76
2022/03/06 08:22:49;;;;;;;15.43;10.73;;;1.80;99.90;;;;;;5082663;27;20050;-76
2022/03/06 08:25:15;;;;;;;16.60;11.20;;;1.90;99.90;;;;;;5085019;28;20032;-76
2022/03/06 08:27:42;;;;;;;16.10;9.97;;;2.00;99.90;;;;;;5059376;28;20016;-76
2022/03/06 08:30:08;;;;;;;16.50;11.30;;;2.00;99.90;;;;;;5100428;27;20043;-76
2022/03/06 08:32:37;;;;;;;16.67;11.40;;;2.10;99.90;;;;;;5081508;27;20038;-76
2022/03/06 08:35:04;;;;;;;15.43;9.30;;;2.20;99.90;;;;;;5064524;28;20028;-73
2022/03/06 08:37:30;;;;;;;15.43;9.33;;;2.30;99.90;;;;;;5079447;28;20097;-75
2022/03/06 08:39:57;;;;;;;14.40;8.63;;;2.40;99.90;;;;;;5081842;27;20035;-76
2022/03/06 08:42:23;;;;;;;12.50;9.13;;;2.50;99.90;;;;;;5081100;28;20070;-73
2022/03/06 08:44:50;;;;;;;14.73;8.80;;;2.60;99.90;;;;;;5064401;28;20024;-76
2022/03/06 08:47:16;;;;;;;13.87;8.47;;;2.80;99.90;;;;;;5079076;27;20052;-73
2022/03/06 08:49:43;;;;;;;13.10;8.73;;;2.80;99.90;;;;;;5049614;28;20463;-76
2022/03/06 08:52:10;;;;;;;14.47;9.27;;;2.90;99.90;;;;;;5084668;28;20031;-73
2022/03/06 08:54:37;;;;;;;14.33;8.90;;;2.90;99.90;;;;;;5094998;27;20483;-72
2022/03/06 08:57:04;;;;;;;12.47;8.30;;;3.00;99.90;;;;;;5100887;27;20028;-73
2022/03/06 08:59:30;;;;;;;12.63;8.50;;;3.00;99.90;;;;;;5047408;28;20031;-72
2022/03/06 09:01:57;;;;;;;14.77;8.77;;;3.10;99.90;;;;;;5063257;28;20280;-72
2022/03/06 09:04:25;;;;;;;12.87;8.03;;;3.20;99.90;;;;;;5078620;27;20031;-72
2022/03/06 09:06:52;;;;;;;10.87;7.20;;;3.40;99.90;;;;;;5079553;28;20023;-72
2022/03/06 09:09:19;;;;;;;10.13;6.50;;;3.50;99.90;;;;;;5077419;28;20023;-72
2022/03/06 09:11:45;;;;;;;10.40;6.90;;;3.60;99.90;;;;;;5095717;27;20036;-72
2022/03/06 09:14:12;;;;;;;11.07;7.30;;;3.60;99.90;;;;;;5094507;27;20380;-72
2022/03/06 09:16:39;;;;;;;10.40;6.10;;;3.70;99.90;;;;;;5080441;27;20015;-72
2022/03/06 09:19:05;;;;;;;10.47;6.50;;;3.80;99.90;;;;;;5078132;27;20027;-75
2022/03/06 09:21:32;;;;;;;9.67;6.37;;;3.80;99.90;;;;;;5063019;27;20035;-73
2022/03/06 09:23:59;;;;;;;11.47;6.87;;;3.90;99.90;;;;;;5076663;27;20035;-72
2022/03/06 09:26:25;;;;;;;10.50;6.20;;;4.00;99.90;;;;;;5064519;28;20467;-73
2022/03/06 09:28:52;;;;;;;10.87;5.77;;;4.00;99.90;;;;;;5074447;28;20026;-73
2022/03/06 09:31:18;;;;;;;7.00;4.97;;;4.10;99.90;;;;;;5094635;28;20051;-74
2022/03/06 09:33:45;;;;;;;7.80;5.50;;;4.30;99.90;;;;;;5076365;28;20019;-73
2022/03/06 09:36:11;;;;;;;9.20;5.40;;;4.40;99.90;;;;;;5064644;27;20518;-73
2022/03/06 09:38:37;;;;;;;9.60;6.40;;;4.40;99.90;;;;;;5077589;28;20371;-74
2022/03/06 09:41:04;;;;;;;8.17;4.73;;;4.50;99.90;;;;;;5046966;27;20023;-74
2022/03/06 09:43:32;;;;;;;9.57;4.87;;;4.60;99.90;;;;;;5095579;28;20023;-73
2022/03/06 09:46:06;;;;;;;10.57;5.03;;;4.70;99.90;;;;;;5074816;27;20030;-74
2022/03/06 09:48:34;;;;;;;7.37;4.83;;;4.80;99.90;;;;;;5099005;28;20027;-73
2022/03/06 09:51:04;;;;;;;8.47;4.70;;;4.80;99.90;;;;;;5076168;28;20024;-74
2022/03/06 09:53:31;;;;;;;9.30;5.30;;;5.00;99.90;;;;;;5096020;28;20012;-77
2022/03/06 09:55:58;;;;;;;10.23;4.97;;;5.00;99.90;;;;;;5096818;28;20023;-77
2022/03/06 09:58:24;;;;;;;6.07;4.17;;;5.00;99.90;;;;;;5098354;28;20031;-73
2022/03/06 10:00:51;;;;;;;9.33;5.27;;;5.00;99.90;;;;;;5077284;28;20035;-77
2022/03/06 10:03:20;;;;;;;7.50;4.83;;;5.10;99.90;;;;;;5048187;28;20451;-76
2022/03/06 10:05:46;;;;;;;8.07;4.67;;;5.30;99.90;;;;;;5079371;28;20034;-77
2022/03/06 10:08:31;;;;;;;6.80;4.60;;;5.40;99.90;;;;;;5080817;28;20501;-76
2022/03/06 10:10:59;;;;;;;6.40;4.40;;;5.60;99.90;;;;;;5062984;28;20035;-77
2022/03/06 10:13:31;;;;;;;9.57;5.20;;;5.60;99.90;;;;;;5078095;28;20027;-77
2022/03/06 10:16:16;;;;;;;9.82;6.28;;;5.80;99.90;;;;;;5077926;28;20039;-78
2022/03/06 10:18:56;;;;;;;8.07;5.47;;;5.90;99.80;;;;;;5099296;28;20023;-78
2022/03/06 10:21:28;;;;;;;10.20;5.17;;;6.00;99.00;;;;;;5097400;28;20459;-77
2022/03/06 10:23:59;;;;;;;7.88;4.65;;;6.00;98.60;;;;;;5070748;28;20012;-77
2022/03/06 10:26:28;;;;;;;8.17;4.77;;;6.10;97.90;;;;;;5076265;28;20431;-76
2022/03/06 10:28:58;;;;;;;8.95;4.85;;;6.30;97.80;;;;;;5075608;28;20032;-78
2022/03/06 10:31:27;;;;;;;9.73;4.85;;;6.60;97.10;;;;;;5078455;28;20024;-78
2022/03/06 10:34:11;;;;;;;6.20;4.15;;;6.80;96.80;;;;;;5092966;28;20016;-77
2022/03/06 10:36:44;;;;;;;6.43;4.18;;;7.10;96.40;;;;;;5059790;28;20051;-77
2022/03/06 10:39:17;;;;;;;6.47;4.15;;;7.30;95.60;;;;;;5095781;28;20430;-77
2022/03/06 10:41:47;;;;;;;6.38;3.90;;;7.60;94.10;;;;;;5082026;28;20047;-77
2022/03/06 10:44:14;;;;;;;8.32;4.30;;;7.80;92.40;;;;;;5098052;27;20376;-77
2022/03/06 10:46:42;;;;;;;12.23;6.43;;;8.00;92.50;;;;;;5082765;28;20028;-77
2022/03/06 10:49:16;;;;;;;9.05;5.55;;;8.20;91.50;;;;;;5078278;27;20040;-77
2022/03/06 10:51:50;;;;;;;8.00;4.40;;;8.50;90.20;;;;;;5083149;27;20042;-77
2022/03/06 10:54:18;;;;;;;5.38;3.67;;;8.70;88.00;;;;;;5077626;28;20015;-78
2022/03/06 10:56:49;;;;;;;5.40;4.10;;;8.90;88.50;;;;;;5080107;28;20032;-78
2022/03/06 10:59:24;;;;;;;6.88;4.35;;;9.20;84.80;;;;;;5079673;28;20016;-78
2022/03/06 11:01:51;;;;;;;7.05;3.83;;;9.30;81.70;;;;;;5064510;27;20019;-77
2022/03/06 11:04:19;;;;;;;7.03;4.35;;;9.30;81.30;;;;;;5099117;27;20031;-79
2022/03/06 11:06:46;;;;;;;6.13;4.18;;;9.40;78.40;;;;;;5082783;28;20031;-78
2022/03/06 11:09:14;;;;;;;5.55;3.85;;;9.60;75.90;;;;;;5079290;28;20020;-78
2022/03/06 11:11:43;;;;;;;4.93;3.97;;;9.70;75.60;;;;;;5081563;27;20024;-76
2022/03/06 11:14:11;;;;;;;5.78;3.42;;;9.80;74.30;;;;;;5080315;27;20082;-77
2022/03/06 11:16:39;;;;;;;6.85;3.95;;;10.00;75.50;;;;;;5065496;28;20028;-77
2022/03/06 11:19:07;;;;;;;5.00;4.15;;;10.20;71.80;;;;;;5076015;28;20028;-76
2022/03/06 11:21:36;;;;;;;9.85;4.55;;;10.30;71.30;;;;;;5080162;28;20023;-77
2022/03/06 11:24:19;;;;;;;7.13;4.03;;;10.40;70.30;;;;;;5098066;27;20039;-76
2022/03/06 11:27:08;;;;;;;6.18;4.47;;;10.60;69.20;;;;;;5066604;28;20032;-76
2022/03/06 11:30:02;;;;;;;6.10;4.18;;;10.80;67.40;;;;;;5097760;27;20427;-77
2022/03/06 11:32:31;;;;;;;5.07;3.90;;;11.00;66.10;;;;;;5100231;27;20036;-77
2022/03/06 11:35:15;;;;;;;4.47;3.55;;;11.20;65.90;;;;;;5078735;27;20034;-77
2022/03/06 11:37:51;;;;;;;5.57;4.53;;;11.40;64.80;;;;;;5095661;27;20024;-77
2022/03/06 11:40:49;;;;;;;4.90;4.30;;;11.60;63.50;;;;;;5099705;27;20525;-77
2022/03/06 11:43:43;;;;;;;8.05;4.47;;;11.90;62.90;;;;;;5105839;27;20036;-77
2022/03/06 11:46:20;;;;;;;6.20;4.78;;;12.00;61.50;;;;;;5087636;28;20035;-77
2022/03/06 11:48:46;;;;;;;6.57;4.47;;;12.00;60.20;;;;;;5101357;27;20322;-77
2022/03/06 11:51:22;;;;;;;5.38;3.92;;;12.00;59.50;;;;;;5105505;27;20026;-77
2022/03/06 11:53:57;;;;;;;5.07;3.75;;;11.70;59.90;;;;;;5106298;27;20656;-77
2022/03/06 11:56:33;;;;;;;6.30;4.25;;;11.10;61.30;;;;;;5088374;28;20374;-73
2022/03/06 11:59:07;;;;;;;5.45;4.22;;;10.70;62.00;;;;;;5096418;27;20020;-73
2022/03/06 12:02:05;;;;;;;6.63;4.63;;;10.60;62.50;;;;;;5101319;27;20024;-73
2022/03/06 12:04:34;;;;;;;8.77;5.07;;;10.60;62.50;;;;;;5047833;27;20024;-73
2022/03/06 12:07:05;;;;;;;5.05;4.20;;;10.80;62.20;;;;;;5080481;28;20023;-73
2022/03/06 12:09:39;;;;;;;6.70;5.03;;;10.60;61.90;;;;;;5057832;28;20040;-73
2022/03/06 12:12:14;;;;;;;20.92;14.15;;;10.70;61.80;;;;;;5081480;27;20035;-74
2022/03/06 12:14:46;;;;;;;12.30;7.53;;;11.00;61.70;;;;;;5096434;27;20027;-74
2022/03/06 12:17:12;;;;;;;5.68;4.25;;;11.50;60.70;;;;;;5100097;27;20016;-73
2022/03/06 12:19:45;;;;;;;6.80;4.20;;;11.80;59.60;;;;;;5100038;27;20367;-73
2022/03/06 12:22:22;;;;;;;6.78;4.20;;;12.10;58.30;;;;;;5097805;27;20043;-73
2022/03/06 12:25:10;;;;;;;4.28;3.67;;;12.50;58.10;;;;;;5080794;28;20028;-74
2022/03/06 12:27:43;;;;;;;7.40;4.65;;;12.70;58.00;;;;;;5100346;27;20023;-74
2022/03/06 12:30:12;;;;;;;7.53;4.18;;;12.90;56.70;;;;;;5097648;27;20039;-73
2022/03/06 12:32:41;;;;;;;5.80;5.20;;;13.20;56.50;;;;;;5064632;27;20026;-74
2022/03/06 12:35:11;;;;;;;5.25;4.63;;;13.40;53.30;;;;;;5060893;28;20024;-74
2022/03/06 12:38:01;;;;;;;4.97;3.70;;;13.20;53.70;;;;;;5080347;27;20020;-74
2022/03/06 12:40:32;;;;;;;5.13;4.20;;;13.40;54.60;;;;;;5063880;27;20031;-74
2022/03/06 12:43:04;;;;;;;5.30;4.47;;;13.10;53.80;;;;;;5100749;27;20012;-74